Time;durP1;ratioP1;P1;durP2;ratioP2;P2;SDS_P1;SDS_P2;PMS_P1;PMS_P2;Temp;Humidity;BMP_temperature;BMP_pressure;BME280_temperature;BME280_humidity;BME280_pressure;Samples;Min_cycle;Max_cycle;Signal;HPM_P1;HPM_P2
2023/04/16 00:00:20;;;;;;;10.73;8.98;;;;;;;8.75;63.76;100080.16;10475143;28;20055;-61
2023/04/16 00:05:22;;;;;;;14.98;9.52;;;;;;;8.68;63.92;100076.16;10452850;28;20264;-61
2023/04/16 00:10:24;;;;;;;12.52;10.30;;;;;;;8.69;64.04;100080.44;10468207;28;20967;-61
2023/04/16 00:15:26;;;;;;;12.70;9.95;;;;;;;8.85;63.80;100086.59;10469751;28;20151;-61
2023/04/16 00:20:28;;;;;;;15.77;10.98;;;;;;;9.00;63.43;100087.56;10469372;28;20044;-61
2023/04/16 00:25:30;;;;;;;12.48;10.32;;;;;;;8.80;63.76;100089.41;10484755;28;20663;-61
2023/04/16 00:30:31;;;;;;;15.88;10.95;;;;;;;8.80;63.84;100091.19;10449918;28;20349;-61
2023/04/16 00:35:33;;;;;;;15.43;11.20;;;;;;;8.76;63.99;100093.09;10451405;28;20041;-61
2023/04/16 00:40:35;;;;;;;14.27;11.10;;;;;;;8.67;64.20;100090.09;10465613;28;20058;-61
2023/04/16 00:45:37;;;;;;;16.08;11.93;;;;;;;8.70;64.17;100088.19;10451882;28;20041;-61
2023/04/16 00:50:39;;;;;;;17.50;13.57;;;;;;;8.66;64.43;100078.84;10471581;28;20055;-61
2023/04/16 00:55:41;;;;;;;17.85;12.85;;;;;;;8.69;64.29;100093.47;10467126;28;20504;-61
2023/04/16 01:00:43;;;;;;;17.33;13.52;;;;;;;8.75;64.34;100095.78;10486509;28;20051;-61
2023/04/16 01:05:48;;;;;;;17.45;14.38;;;;;;;8.75;64.28;100101.00;10467000;28;20048;-61
2023/04/16 01:10:49;;;;;;;17.58;14.20;;;;;;;8.78;64.31;100103.44;10469484;28;20048;-61
2023/04/16 01:15:51;;;;;;;19.92;15.00;;;;;;;8.67;64.32;100097.91;10448509;28;20485;-61
2023/04/16 01:20:53;;;;;;;21.92;15.98;;;;;;;8.72;64.45;100102.00;10471030;28;20037;-61
2023/04/16 01:25:55;;;;;;;21.92;15.45;;;;;;;8.60;64.65;100102.59;10468603;28;20055;-61
2023/04/16 01:30:57;;;;;;;20.85;15.55;;;;;;;8.58;64.95;100108.81;10452732;28;20052;-61
2023/04/16 01:36:19;;;;;;;21.17;15.43;;;;;;;8.68;64.77;100107.44;10477587;28;20958;-61
2023/04/16 01:41:21;;;;;;;21.70;15.52;;;;;;;8.59;64.77;100100.91;10475084;28;20419;-62
2023/04/16 01:46:28;;;;;;;20.80;15.32;;;;;;;8.48;65.44;100113.63;10475489;28;20383;-61
2023/04/16 01:51:30;;;;;;;22.55;16.25;;;;;;;8.50;65.18;100111.78;10460060;28;20495;-62
2023/04/16 01:56:32;;;;;;;20.75;15.80;;;;;;;8.55;65.04;100115.00;10476701;28;20086;-62
2023/04/16 02:01:34;;;;;;;20.17;15.10;;;;;;;8.45;65.35;100110.31;10461107;28;20155;-62
2023/04/16 02:06:38;;;;;;;20.60;15.63;;;;;;;8.52;65.23;100117.78;10450986;28;20049;-62
2023/04/16 02:11:40;;;;;;;20.08;14.95;;;;;;;8.58;64.95;100114.88;10463696;28;20052;-62
2023/04/16 02:16:41;;;;;;;17.27;12.77;;;;;;;8.47;65.14;100109.31;10448168;28;20047;-62
2023/04/16 02:21:52;;;;;;;16.38;12.95;;;;;;;8.55;64.95;100120.22;10471137;28;20048;-62
2023/04/16 02:26:53;;;;;;;17.88;13.00;;;;;;;8.57;64.86;100112.31;10481498;28;20159;-62
2023/04/16 02:31:55;;;;;;;15.50;12.73;;;;;;;8.54;64.64;100115.09;10496816;28;20056;-62
2023/04/16 02:36:58;;;;;;;15.77;12.30;;;;;;;8.52;64.53;100104.75;10464088;28;20404;-62
2023/04/16 02:42:01;;;;;;;15.93;13.15;;;;;;;8.54;64.53;100112.47;10495613;28;20045;-62
2023/04/16 02:47:03;;;;;;;15.63;12.68;;;;;;;8.55;64.47;100111.53;10504389;28;20459;-62
2023/04/16 02:52:05;;;;;;;19.63;13.85;;;;;;;8.55;64.86;100109.78;10461471;28;20051;-62
2023/04/16 02:57:07;;;;;;;16.83;13.43;;;;;;;8.49;64.73;100104.88;10485332;28;20249;-62
2023/04/16 03:02:09;;;;;;;17.45;13.70;;;;;;;8.67;64.45;100103.13;10480515;28;20174;-62
2023/04/16 03:07:12;;;;;;;17.88;13.40;;;;;;;8.68;64.33;100095.25;10460517;28;20048;-62
2023/04/16 03:12:14;;;;;;;18.35;13.18;;;;;;;8.63;64.46;100096.38;10474454;28;20102;-62
2023/04/16 03:17:16;;;;;;;17.60;13.52;;;;;;;8.69;64.49;100086.50;10472216;28;20704;-62
2023/04/16 03:22:17;;;;;;;17.70;13.63;;;;;;;8.57;64.59;100091.47;10453811;28;20447;-62
2023/04/16 03:27:20;;;;;;;16.85;12.32;;;;;;;8.53;64.64;100101.19;10457103;28;20056;-62
2023/04/16 03:32:22;;;;;;;17.77;13.00;;;;;;;8.40;65.02;100109.69;10455566;28;20555;-62
2023/04/16 03:37:24;;;;;;;17.90;13.05;;;;;;;8.55;64.67;100109.78;10466284;28;20346;-62
2023/04/16 03:42:26;;;;;;;17.75;12.65;;;;;;;8.56;64.84;100103.69;10493323;28;20048;-62
2023/04/16 03:47:27;;;;;;;18.50;13.02;;;;;;;8.67;64.50;100108.34;10471723;28;20135;-62
2023/04/16 03:52:33;;;;;;;17.65;13.55;;;;;;;8.61;64.59;100109.50;10453466;28;20055;-62
2023/04/16 03:57:35;;;;;;;20.98;15.02;;;;;;;8.45;65.03;100097.28;10453169;28;20036;-62
2023/04/16 04:02:43;;;;;;;19.65;15.30;;;;;;;8.13;65.83;100106.63;10450623;28;20124;-62
2023/04/16 04:07:51;;;;;;;23.30;17.10;;;;;;;8.09;66.25;100081.63;10486746;28;20234;-62
2023/04/16 04:12:53;;;;;;;23.38;16.67;;;;;;;8.13;66.02;100080.59;10453039;28;20037;-62
2023/04/16 04:17:56;;;;;;;23.67;17.70;;;;;;;7.96;66.34;100075.28;10484588;28;20475;-62
2023/04/16 04:22:58;;;;;;;23.17;17.55;;;;;;;7.95;66.24;100097.03;10452433;28;20087;-62
2023/04/16 04:28:00;;;;;;;24.83;17.67;;;;;;;8.09;66.27;100099.84;10462746;28;20036;-62
2023/04/16 04:33:02;;;;;;;24.85;18.15;;;;;;;8.18;65.96;100124.66;10474384;28;20055;-62
2023/04/16 04:38:05;;;;;;;23.23;17.83;;;;;;;8.29;65.72;100127.59;10486959;28;20098;-62
2023/04/16 04:43:07;;;;;;;23.25;17.55;;;;;;;8.19;66.07;100128.94;10452044;28;20499;-62
2023/04/16 04:48:10;;;;;;;22.15;16.70;;;;;;;8.13;66.17;100137.03;10453054;28;20527;-61
2023/04/16 04:53:13;;;;;;;21.60;17.05;;;;;;;8.27;65.91;100145.06;10454492;28;20330;-61
2023/04/16 04:58:16;;;;;;;23.25;17.60;;;;;;;8.36;65.53;100155.06;10452783;28;20044;-61
2023/04/16 05:03:22;;;;;;;22.73;17.13;;;;;;;8.21;65.81;100168.78;10453223;28;20040;-61
2023/04/16 05:08:24;;;;;;;26.60;16.90;;;;;;;8.19;65.82;100179.28;10460394;28;20048;-62
2023/04/16 05:13:26;;;;;;;24.55;18.20;;;;;;;8.20;65.69;100178.34;10477295;28;20448;-61
2023/04/16 05:18:28;;;;;;;21.98;17.25;;;;;;;8.42;65.17;100171.25;10476917;28;20511;-61
2023/04/16 05:23:29;;;;;;;23.98;16.95;;;;;;;8.36;65.14;100188.94;10477809;28;20044;-61
2023/04/16 05:28:31;;;;;;;22.70;16.92;;;;;;;8.52;64.81;100184.69;10477600;28;20048;-61
2023/04/16 05:33:33;;;;;;;25.48;18.05;;;;;;;8.56;64.71;100188.84;10481536;28;20049;-62
2023/04/16 05:38:35;;;;;;;27.38;17.70;;;;;;;8.44;64.82;100195.50;10478368;28;20040;-62
2023/04/16 05:43:37;;;;;;;24.98;18.30;;;;;;;8.44;65.15;100194.63;10476811;28;20040;-62
2023/04/16 05:48:38;;;;;;;25.63;18.13;;;;;;;8.48;65.08;100197.03;10475082;28;20048;-61
2023/04/16 05:53:40;;;;;;;23.25;17.00;;;;;;;8.59;64.84;100213.00;10476696;28;20052;-61
2023/04/16 05:58:42;;;;;;;22.55;17.83;;;;;;;8.70;64.82;100212.50;10474840;28;20044;-62
2023/04/16 06:03:44;;;;;;;25.95;18.35;;;;;;;8.81;64.88;100211.06;10474161;28;20048;-62
2023/04/16 06:08:46;;;;;;;21.80;16.73;;;;;;;8.84;64.77;100215.28;10474274;28;20171;-62
2023/04/16 06:13:48;;;;;;;22.73;16.95;;;;;;;8.83;64.90;100216.22;10475319;28;20205;-61
2023/04/16 06:18:49;;;;;;;26.00;17.38;;;;;;;8.76;64.96;100226.09;10474353;28;20524;-62
2023/04/16 06:23:51;;;;;;;26.17;18.50;;;;;;;8.81;65.29;100225.88;10456357;28;20044;-62
2023/04/16 06:28:53;;;;;;;26.33;18.13;;;;;;;8.84;65.26;100230.94;10456412;28;20157;-62
2023/04/16 06:33:55;;;;;;;26.08;18.10;;;;;;;8.76;65.24;100233.06;10472279;28;20356;-62
2023/04/16 06:38:57;;;;;;;26.52;18.17;;;;;;;8.76;65.21;100231.31;10453332;28;20425;-62
2023/04/16 06:43:59;;;;;;;25.52;17.83;;;;;;;8.76;65.26;100233.06;10471249;28;20047;-62
2023/04/16 06:49:01;;;;;;;26.83;19.30;;;;;;;8.82;65.31;100233.63;10473047;28;20170;-62
2023/04/16 06:54:02;;;;;;;25.13;18.63;;;;;;;9.02;65.33;100243.09;10452811;28;20161;-63
2023/04/16 06:59:05;;;;;;;23.63;18.17;;;;;;;9.14;64.74;100234.66;10471303;28;20444;-62
2023/04/16 07:04:06;;;;;;;27.10;18.98;;;;;;;9.38;64.45;100232.63;10475342;28;20510;-62
2023/04/16 07:09:08;;;;;;;22.17;17.35;;;;;;;9.41;64.30;100237.69;10470728;28;20534;-62
2023/04/16 07:14:11;;;;;;;24.83;17.88;;;;;;;9.55;63.85;100245.66;10470546;28;20102;-62
2023/04/16 07:19:12;;;;;;;22.38;17.33;;;;;;;9.65;63.35;100245.13;10468275;28;20039;-63
2023/04/16 07:24:14;;;;;;;22.90;17.58;;;;;;;9.53;63.68;100253.56;10479998;28;20056;-63
2023/04/16 07:29:16;;;;;;;24.33;18.17;;;;;;;9.74;63.36;100250.81;10454239;28;20567;-63
2023/04/16 07:34:18;;;;;;;22.83;17.45;;;;;;;10.06;62.46;100248.22;10442537;28;20056;-62
2023/04/16 07:39:20;;;;;;;23.48;17.50;;;;;;;10.06;62.50;100260.44;10466077;28;20490;-62
2023/04/16 07:44:22;;;;;;;28.27;18.45;;;;;;;10.05;62.86;100272.69;10466595;28;20109;-63
2023/04/16 07:49:24;;;;;;;23.02;18.00;;;;;;;9.83;62.60;100268.66;10466863;28;20053;-63
2023/04/16 07:54:26;;;;;;;25.55;19.10;;;;;;;9.73;62.93;100278.69;10467747;28;20292;-62
2023/04/16 07:59:30;;;;;;;27.25;19.52;;;;;;;9.65;62.92;100288.66;10468757;28;20174;-62
2023/04/16 08:04:31;;;;;;;26.35;19.17;;;;;;;9.75;62.87;100289.09;10480427;28;20217;-62
2023/04/16 08:09:37;;;;;;;30.15;21.88;;;;;;;9.83;62.81;100294.78;10465340;28;20053;-62
2023/04/16 08:14:40;;;;;;;29.77;21.60;;;;;;;9.61;63.39;100303.66;10487068;28;20048;-62
2023/04/16 08:19:45;;;;;;;32.15;20.50;;;;;;;9.57;63.16;100314.31;10473275;28;20036;-63
2023/04/16 08:24:47;;;;;;;32.15;22.52;;;;;;;9.56;63.23;100321.28;10487371;28;20052;-62
2023/04/16 08:29:49;;;;;;;32.22;23.38;;;;;;;9.69;63.34;100308.50;10477621;28;20609;-62
2023/04/16 08:34:51;;;;;;;36.70;25.27;;;;;;;9.72;63.10;100318.81;10469924;28;20051;-63
2023/04/16 08:39:53;;;;;;;38.88;26.55;;;;;;;9.81;62.73;100326.19;10451493;28;20043;-62
2023/04/16 08:45:07;;;;;;;35.10;24.02;;;;;;;9.85;62.76;100332.13;10473648;28;20290;-63
2023/04/16 08:50:10;;;;;;;40.95;28.23;;;;;;;9.92;62.84;100330.88;10472678;28;20105;-62
2023/04/16 08:55:15;;;;;;;36.30;26.15;;;;;;;9.84;63.05;100344.31;10467255;28;20052;-62
2023/04/16 09:00:18;;;;;;;35.35;24.20;;;;;;;9.69;63.35;100349.47;10454008;28;20488;-62
2023/04/16 09:05:24;;;;;;;36.97;25.17;;;;;;;9.73;63.63;100351.84;10478009;28;20504;-62
2023/04/16 09:10:26;;;;;;;40.58;25.70;;;;;;;9.97;63.10;100342.75;10472670;28;20053;-63
2023/04/16 09:15:28;;;;;;;39.42;25.45;;;;;;;9.95;63.05;100341.19;10469133;28;20125;-63
2023/04/16 09:20:30;;;;;;;38.00;24.42;;;;;;;10.06;62.97;100351.91;10499764;28;20040;-64
2023/04/16 09:25:37;;;;;;;37.10;25.15;;;;;;;10.21;62.66;100345.91;10451203;28;20366;-63
2023/04/16 09:30:39;;;;;;;37.45;25.42;;;;;;;10.25;62.54;100358.75;10483015;28;20054;-64
2023/04/16 09:35:50;;;;;;;39.47;25.75;;;;;;;10.24;62.79;100367.50;10470926;28;20049;-64
2023/04/16 09:41:07;;;;;;;38.90;25.53;;;;;;;10.22;62.71;100366.72;10470910;28;20707;-63
2023/04/16 09:46:11;;;;;;;39.15;26.50;;;;;;;10.34;62.56;100373.09;10456358;28;20172;-63
2023/04/16 09:51:13;;;;;;;39.38;25.85;;;;;;;10.09;62.78;100372.69;10474333;28;20128;-63
2023/04/16 09:56:15;;;;;;;37.78;25.17;;;;;;;10.21;62.87;100379.88;10474967;28;20037;-63
2023/04/16 10:01:17;;;;;;;39.03;24.88;;;;;;;10.20;62.88;100375.56;10459148;28;20475;-63
2023/04/16 10:06:22;;;;;;;34.38;23.80;;;;;;;10.31;62.54;100378.50;10477580;28;20664;-63
2023/04/16 10:11:25;;;;;;;33.88;23.55;;;;;;;10.47;62.23;100389.84;10473970;28;20464;-63
2023/04/16 10:16:28;;;;;;;34.97;22.48;;;;;;;10.55;61.73;100392.91;10476755;28;20068;-63
2023/04/16 10:21:32;;;;;;;34.85;22.38;;;;;;;10.53;61.45;100399.97;10483075;28;20071;-63
2023/04/16 10:26:35;;;;;;;31.25;21.90;;;;;;;10.52;61.54;100401.75;10478247;28;20040;-63
2023/04/16 10:31:38;;;;;;;31.50;21.50;;;;;;;10.66;60.93;100405.44;10498246;28;20805;-64
2023/04/16 10:36:58;;;;;;;30.27;22.25;;;;;;;10.64;60.80;100407.28;10481496;28;20446;-63
2023/04/16 10:42:07;;;;;;;29.70;21.65;;;;;;;10.74;60.35;100404.09;10478906;28;20393;-63
2023/04/16 10:47:11;;;;;;;29.52;21.05;;;;;;;11.38;59.95;100403.28;10473760;28;20538;-63
2023/04/16 10:52:19;;;;;;;31.85;21.13;;;;;;;11.86;58.16;100400.50;10496819;28;20059;-63
2023/04/16 10:57:20;;;;;;;28.73;20.45;;;;;;;11.93;57.89;100397.41;10480124;28;20047;-63
2023/04/16 11:02:27;;;;;;;31.90;21.88;;;;;;;11.99;57.52;100396.22;10482737;28;20049;-63
2023/04/16 11:07:33;;;;;;;29.17;20.67;;;;;;;12.17;56.64;100391.69;10480354;28;20491;-64
2023/04/16 11:12:45;;;;;;;31.20;20.77;;;;;;;12.58;55.45;100392.69;10476858;28;20044;-63
2023/04/16 11:17:50;;;;;;;27.95;20.30;;;;;;;13.35;55.31;100382.59;10493450;28;20125;-64
2023/04/16 11:22:54;;;;;;;24.73;18.40;;;;;;;13.59;53.87;100379.28;10480875;28;20210;-64
2023/04/16 11:27:59;;;;;;;24.08;17.65;;;;;;;13.83;52.27;100378.59;10465939;28;20086;-64
2023/04/16 11:33:10;;;;;;;25.35;18.30;;;;;;;13.93;51.95;100383.13;10469501;28;20055;-64
2023/04/16 11:38:12;;;;;;;24.23;17.27;;;;;;;14.07;52.12;100380.44;10470640;28;20048;-63
2023/04/16 11:43:15;;;;;;;20.50;15.65;;;;;;;14.49;50.92;100374.09;10489417;28;20044;-64
2023/04/16 11:48:17;;;;;;;22.40;15.80;;;;;;;14.67;50.47;100380.72;10470902;28;20050;-64
2023/04/16 11:53:19;;;;;;;22.15;14.80;;;;;;;14.99;50.13;100383.72;10469555;28;20130;-64
2023/04/16 11:58:22;;;;;;;20.98;15.80;;;;;;;14.99;49.03;100381.06;10468142;28;20201;-64
2023/04/16 12:03:38;;;;;;;19.50;14.63;;;;;;;14.76;47.66;100382.69;10466618;28;20417;-63
2023/04/16 12:08:41;;;;;;;19.10;14.50;;;;;;;14.63;48.63;100388.94;10498069;28;20128;-64
2023/04/16 12:14:10;;;;;;;18.02;13.48;;;;;;;14.54;47.70;100382.50;10451299;28;20044;-63
2023/04/16 12:19:12;;;;;;;18.10;13.82;;;;;;;14.38;48.52;100382.69;10491237;28;20502;-63
2023/04/16 12:24:19;;;;;;;18.15;12.18;;;;;;;14.57;48.20;100396.28;10466391;28;20036;-63
2023/04/16 12:29:26;;;;;;;16.20;11.90;;;;;;;14.34;47.95;100394.38;10473893;28;20396;-63
2023/04/16 12:34:28;;;;;;;15.18;11.77;;;;;;;14.47;47.62;100389.13;10484147;28;20144;-63
2023/04/16 12:39:50;;;;;;;16.63;12.13;;;;;;;13.92;48.18;100396.41;10477607;28;20452;-63
2023/04/16 12:44:52;;;;;;;16.10;12.43;;;;;;;13.66;48.87;100390.19;10472993;28;20342;-63
2023/04/16 12:49:55;;;;;;;16.98;12.05;;;;;;;13.90;48.54;100399.13;10470066;28;20423;-63
2023/04/16 12:54:57;;;;;;;16.38;12.63;;;;;;;13.77;48.75;100396.47;10465356;28;20163;-63
2023/04/16 12:59:59;;;;;;;17.85;13.38;;;;;;;13.71;49.63;100388.13;10487044;28;20049;-63
2023/04/16 13:05:01;;;;;;;15.13;12.70;;;;;;;13.66;49.36;100385.78;10466059;28;20447;-63
2023/04/16 13:10:05;;;;;;;16.15;12.25;;;;;;;13.90;48.73;100393.88;10467890;28;20131;-63
2023/04/16 13:15:07;;;;;;;16.20;12.75;;;;;;;14.29;48.81;100387.72;10476901;28;20047;-63
2023/04/16 13:20:09;;;;;;;15.25;12.15;;;;;;;13.99;47.90;100388.00;10500099;28;20040;-63
2023/04/16 13:25:11;;;;;;;13.35;10.70;;;;;;;14.07;47.96;100383.06;10475061;28;20139;-63
2023/04/16 13:30:13;;;;;;;14.23;10.98;;;;;;;14.18;47.40;100393.72;10486142;28;20045;-63
2023/04/16 13:35:15;;;;;;;14.90;11.60;;;;;;;13.70;47.21;100392.53;10474429;28;20454;-63
2023/04/16 13:40:17;;;;;;;16.42;10.98;;;;;;;13.71;47.93;100396.88;10490810;28;20059;-63
2023/04/16 13:45:21;;;;;;;16.73;11.18;;;;;;;13.77;47.55;100393.00;10475845;28;20052;-63
2023/04/16 13:50:23;;;;;;;14.05;10.38;;;;;;;13.91;47.39;100386.81;10475946;28;20121;-63
2023/04/16 13:55:25;;;;;;;14.85;10.43;;;;;;;13.47;46.42;100385.31;10473679;28;20051;-63
2023/04/16 14:00:27;;;;;;;12.57;10.02;;;;;;;13.54;47.32;100389.22;10472411;28;20644;-63
2023/04/16 14:05:29;;;;;;;16.23;11.02;;;;;;;13.89;47.31;100397.44;10486208;28;20106;-63
2023/04/16 14:10:31;;;;;;;14.45;10.15;;;;;;;14.09;47.22;100394.31;10487628;28;20050;-63
2023/04/16 14:15:33;;;;;;;14.15;10.70;;;;;;;14.45;46.97;100394.47;10491003;28;20382;-63
2023/04/16 14:20:38;;;;;;;13.20;10.82;;;;;;;14.31;46.77;100381.41;10513489;28;20592;-63
2023/04/16 14:25:40;;;;;;;14.82;10.18;;;;;;;13.95;46.93;100391.78;10483136;28;20071;-63
2023/04/16 14:30:42;;;;;;;12.60;9.82;;;;;;;13.46;47.47;100388.03;10476261;28;20036;-63
2023/04/16 14:35:43;;;;;;;13.02;10.10;;;;;;;13.40;47.64;100388.38;10475413;28;20079;-63
2023/04/16 14:40:45;;;;;;;13.20;9.27;;;;;;;13.32;47.42;100395.91;10471834;28;20113;-63
2023/04/16 14:45:47;;;;;;;14.40;9.75;;;;;;;13.34;47.62;100399.28;10494722;28;20044;-63
2023/04/16 14:50:49;;;;;;;12.70;9.00;;;;;;;13.19;46.81;100395.84;10463488;28;20059;-63
2023/04/16 14:55:51;;;;;;;11.27;8.70;;;;;;;13.17;47.56;100402.16;10491772;28;20067;-63
2023/04/16 15:00:53;;;;;;;13.52;10.38;;;;;;;13.15;47.42;100406.66;10475435;28;20127;-63
2023/04/16 15:05:55;;;;;;;12.88;9.65;;;;;;;13.26;48.24;100412.06;10472316;28;20050;-63
2023/04/16 15:10:57;;;;;;;13.65;10.20;;;;;;;13.21;47.68;100408.91;10478180;28;20131;-64
2023/04/16 15:16:03;;;;;;;15.95;10.55;;;;;;;12.98;47.87;100409.47;10470862;28;20512;-63
2023/04/16 15:21:05;;;;;;;15.77;10.50;;;;;;;13.04;47.95;100407.31;10472464;28;20056;-64
2023/04/16 15:26:08;;;;;;;11.75;9.82;;;;;;;13.37;48.09;100413.06;10456574;28;20103;-64
2023/04/16 15:31:10;;;;;;;13.88;11.88;;;;;;;13.34;47.66;100413.28;10491724;28;20131;-63
2023/04/16 15:36:12;;;;;;;13.45;10.68;;;;;;;13.35;47.84;100414.13;10496798;28;20039;-63
2023/04/16 15:41:14;;;;;;;15.65;10.77;;;;;;;13.55;47.84;100414.56;10482327;28;20048;-63
2023/04/16 15:46:16;;;;;;;13.80;10.68;;;;;;;13.47;47.60;100410.75;10481839;28;20036;-63
2023/04/16 15:51:18;;;;;;;16.15;11.43;;;;;;;13.42;48.16;100416.28;10447344;28;20163;-63
2023/04/16 15:56:20;;;;;;;15.57;11.52;;;;;;;13.28;48.36;100423.31;10465679;28;20139;-63
2023/04/16 16:01:21;;;;;;;15.93;11.85;;;;;;;13.35;48.57;100417.56;10465881;28;20044;-63
2023/04/16 16:06:23;;;;;;;14.13;11.93;;;;;;;13.07;48.98;100416.81;10475640;28;20048;-63
2023/04/16 16:11:26;;;;;;;17.75;12.40;;;;;;;12.98;49.47;100424.28;10466188;28;20204;-63
2023/04/16 16:16:29;;;;;;;16.02;12.60;;;;;;;12.82;49.80;100428.78;10476443;28;20070;-63
2023/04/16 16:21:31;;;;;;;15.95;12.50;;;;;;;12.71;50.01;100428.63;10495728;28;20144;-63
2023/04/16 16:26:33;;;;;;;16.80;12.57;;;;;;;12.66;49.90;100432.47;10479193;28;20048;-63
2023/04/16 16:31:35;;;;;;;17.10;12.50;;;;;;;12.69;50.02;100432.25;10470096;28;20063;-63
2023/04/16 16:36:37;;;;;;;16.98;11.95;;;;;;;12.58;50.65;100439.91;10471826;28;20051;-63
2023/04/16 16:41:40;;;;;;;16.67;12.02;;;;;;;12.32;50.04;100441.47;10471569;28;20363;-63
2023/04/16 16:46:43;;;;;;;15.10;11.18;;;;;;;12.07;51.04;100436.78;10471120;28;20416;-64
2023/04/16 16:51:48;;;;;;;16.13;11.75;;;;;;;12.12;51.43;100447.88;10476408;28;20063;-64
2023/04/16 16:56:51;;;;;;;18.45;12.30;;;;;;;12.00;51.36;100451.19;10446776;28;20135;-64
2023/04/16 17:01:53;;;;;;;16.15;12.05;;;;;;;12.06;51.54;100445.59;10480544;28;20039;-63
2023/04/16 17:06:55;;;;;;;14.70;11.77;;;;;;;11.99;51.88;100454.72;10478084;28;20492;-64
2023/04/16 17:11:57;;;;;;;15.68;12.73;;;;;;;11.98;51.84;100455.69;10481682;28;20063;-63
2023/04/16 17:16:59;;;;;;;14.73;11.57;;;;;;;11.97;51.76;100453.13;10478384;28;20047;-63
2023/04/16 17:22:01;;;;;;;16.23;12.25;;;;;;;11.96;51.76;100462.78;10463402;28;20712;-63
2023/04/16 17:27:03;;;;;;;18.05;12.18;;;;;;;11.82;52.07;100457.50;10464088;28;20143;-63
2023/04/16 17:32:05;;;;;;;15.60;11.88;;;;;;;11.82;51.60;100459.25;10469858;28;20114;-63
2023/04/16 17:37:07;;;;;;;16.33;11.90;;;;;;;11.82;52.19;100467.97;10460510;28;20045;-63
2023/04/16 17:42:09;;;;;;;14.93;11.70;;;;;;;11.76;52.35;100468.31;10455324;28;20044;-63
2023/04/16 17:47:11;;;;;;;20.02;12.27;;;;;;;11.72;52.55;100469.38;10461063;28;20139;-63
2023/04/16 17:52:12;;;;;;;16.38;12.43;;;;;;;11.71;52.61;100472.94;10463633;28;20044;-63
2023/04/16 17:57:15;;;;;;;18.17;12.68;;;;;;;11.59;52.93;100483.25;10462402;28;20496;-63
2023/04/16 18:02:17;;;;;;;15.65;11.88;;;;;;;11.51;53.24;100486.31;10460575;28;20199;-63
2023/04/16 18:07:19;;;;;;;16.35;12.95;;;;;;;11.44;53.15;100492.78;10465732;28;20501;-63
2023/04/16 18:12:21;;;;;;;16.02;11.98;;;;;;;11.38;53.01;100505.41;10465621;28;20039;-62
2023/04/16 18:17:23;;;;;;;14.43;10.77;;;;;;;11.19;53.40;100500.31;10472783;28;20059;-62
2023/04/16 18:22:27;;;;;;;16.10;11.40;;;;;;;11.18;53.54;100509.06;10471100;28;20044;-62
2023/04/16 18:27:28;;;;;;;15.43;11.32;;;;;;;11.12;53.53;100518.09;10472597;28;20043;-61
2023/04/16 18:32:30;;;;;;;14.43;10.68;;;;;;;11.15;53.29;100522.34;10470144;28;20059;-62
2023/04/16 18:37:32;;;;;;;13.73;10.68;;;;;;;11.13;53.77;100525.00;10472339;28;20711;-62
2023/04/16 18:42:35;;;;;;;14.45;9.95;;;;;;;11.05;53.86;100524.56;10471353;28;20619;-62
2023/04/16 18:47:38;;;;;;;16.10;10.30;;;;;;;10.96;54.23;100535.50;10470450;28;20493;-62
2023/04/16 18:52:40;;;;;;;13.98;10.95;;;;;;;10.80;54.58;100536.34;10452940;28;20074;-62
2023/04/16 18:57:42;;;;;;;13.55;10.88;;;;;;;10.70;55.06;100543.84;10481430;28;20038;-62
2023/04/16 19:02:44;;;;;;;12.90;10.52;;;;;;;10.61;55.41;100535.59;10496563;27;20063;-62
2023/04/16 19:07:46;;;;;;;14.45;11.05;;;;;;;10.60;55.29;100541.75;10482441;28;20119;-61
2023/04/16 19:12:48;;;;;;;14.75;10.90;;;;;;;10.65;55.38;100545.81;10485523;28;20052;-62
2023/04/16 19:17:50;;;;;;;14.68;11.15;;;;;;;10.63;55.70;100552.91;10485419;28;20518;-62
2023/04/16 19:22:52;;;;;;;13.82;10.60;;;;;;;10.60;55.34;100553.06;10480457;28;20049;-62
2023/04/16 19:27:55;;;;;;;13.93;10.80;;;;;;;10.66;55.23;100554.53;10512416;28;20044;-62
2023/04/16 19:32:57;;;;;;;14.65;11.07;;;;;;;10.71;55.29;100548.13;10479357;28;20139;-62
2023/04/16 19:37:59;;;;;;;12.75;10.48;;;;;;;10.76;55.15;100547.91;10471186;28;20106;-62
2023/04/16 19:43:01;;;;;;;14.25;11.13;;;;;;;10.75;55.36;100546.19;10473101;28;20051;-62
2023/04/16 19:48:03;;;;;;;13.20;10.77;;;;;;;10.80;55.31;100550.28;10472123;28;20159;-62
2023/04/16 19:53:05;;;;;;;13.15;11.10;;;;;;;10.83;55.81;100546.66;10471109;28;20048;-62
2023/04/16 19:58:07;;;;;;;17.27;11.52;;;;;;;10.79;55.51;100550.34;10477568;28;20045;-62
2023/04/16 20:03:09;;;;;;;13.50;10.90;;;;;;;10.68;56.15;100555.28;10470823;28;20036;-62
2023/04/16 20:08:11;;;;;;;14.02;11.38;;;;;;;10.60;56.28;100557.44;10471977;28;20128;-62
2023/04/16 20:13:13;;;;;;;15.48;11.18;;;;;;;10.58;56.12;100557.53;10470611;28;20473;-62
2023/04/16 20:18:18;;;;;;;14.10;11.43;;;;;;;10.57;56.37;100562.81;10471221;28;20052;-62
2023/04/16 20:23:20;;;;;;;13.82;10.90;;;;;;;10.57;56.50;100562.81;10485363;28;20048;-62
2023/04/16 20:28:22;;;;;;;15.70;11.55;;;;;;;10.46;56.63;100566.00;10468194;28;20212;-62
2023/04/16 20:33:23;;;;;;;15.43;11.50;;;;;;;10.43;56.90;100564.38;10469197;28;20066;-62
2023/04/16 20:38:28;;;;;;;15.32;11.95;;;;;;;10.37;57.03;100562.06;10468322;28;20039;-62
2023/04/16 20:43:37;;;;;;;13.98;11.05;;;;;;;10.31;57.29;100561.50;10454127;28;20052;-62
2023/04/16 20:48:39;;;;;;;16.02;11.23;;;;;;;10.20;57.55;100564.63;10451378;28;20053;-62
2023/04/16 20:53:41;;;;;;;13.90;10.82;;;;;;;10.19;57.72;100552.50;10468675;28;20057;-62
2023/04/16 20:58:43;;;;;;;13.75;11.20;;;;;;;10.17;57.75;100553.47;10469150;28;20041;-62
2023/04/16 21:03:45;;;;;;;15.18;10.85;;;;;;;10.23;57.88;100554.03;10468674;28;20395;-62
2023/04/16 21:08:47;;;;;;;13.25;10.90;;;;;;;10.20;58.01;100555.94;10477818;28;20033;-62
2023/04/16 21:13:49;;;;;;;17.75;11.02;;;;;;;10.19;58.26;100552.50;10451806;28;20041;-62
2023/04/16 21:18:50;;;;;;;13.48;11.10;;;;;;;10.28;57.97;100554.63;10456066;28;20110;-62
2023/04/16 21:23:53;;;;;;;13.13;11.35;;;;;;;10.29;57.84;100555.50;10469496;28;20415;-62
2023/04/16 21:28:55;;;;;;;13.80;11.20;;;;;;;10.22;58.16;100554.94;10470669;28;20044;-62
2023/04/16 21:33:56;;;;;;;13.32;11.35;;;;;;;10.22;58.26;100557.56;10469667;28;20051;-62
2023/04/16 21:38:58;;;;;;;15.52;11.65;;;;;;;10.16;58.55;100557.84;10468767;28;20374;-62
2023/04/16 21:44:00;;;;;;;13.48;11.45;;;;;;;10.16;58.67;100559.59;10448512;28;20472;-62
2023/04/16 21:49:02;;;;;;;16.40;12.52;;;;;;;10.07;58.92;100560.06;10470741;28;20047;-62
2023/04/16 21:54:04;;;;;;;15.55;11.88;;;;;;;10.10;58.77;100554.69;10489391;28;20131;-62
2023/04/16 21:59:06;;;;;;;14.60;11.70;;;;;;;10.12;58.78;100550.22;10476042;28;20040;-62
2023/04/16 22:04:08;;;;;;;14.48;11.85;;;;;;;10.12;58.81;100552.84;10476842;28;20051;-62
2023/04/16 22:09:10;;;;;;;14.52;11.10;;;;;;;10.07;58.73;100560.06;10475828;28;20125;-62
2023/04/16 22:14:13;;;;;;;14.55;11.45;;;;;;;9.97;59.15;100551.78;10472972;28;20432;-62
2023/04/16 22:19:16;;;;;;;15.38;12.25;;;;;;;9.95;59.02;100552.81;10487812;28;20122;-62
2023/04/16 22:24:18;;;;;;;16.23;12.52;;;;;;;9.95;59.15;100553.63;10493149;28;20681;-62
2023/04/16 22:29:20;;;;;;;15.10;12.65;;;;;;;9.92;59.25;100547.72;10472389;28;20053;-61
2023/04/16 22:34:22;;;;;;;14.98;12.50;;;;;;;9.71;59.59;100541.72;10493437;28;20695;-61
2023/04/16 22:39:23;;;;;;;15.95;12.57;;;;;;;9.56;60.03;100550.25;10477373;28;20055;-62
2023/04/16 22:44:25;;;;;;;16.95;12.30;;;;;;;9.56;60.02;100545.84;10470815;28;20222;-61